createdAt,value
2018-03-30T00:03:00.000Z,8.8
2018-03-30T00:08:00.000Z,8.7
2018-03-30T00:13:00.000Z,8.7
2018-03-30T00:19:00.000Z,8.9
2018-03-30T00:24:00.000Z,9.0
2018-03-30T00:29:00.000Z,9.0
2018-03-30T00:34:00.000Z,9.0
2018-03-30T00:39:00.000Z,9.0
2018-03-30T00:44:00.000Z,9.0
2018-03-30T00:49:00.000Z,8.8
2018-03-30T00:54:00.000Z,8.7
2018-03-30T00:59:00.000Z,8.6
2018-03-30T01:04:00.000Z,8.7
2018-03-30T01:09:00.000Z,8.8
2018-03-30T01:14:00.000Z,9.0
2018-03-30T01:19:00.000Z,9.0
2018-03-30T01:24:00.000Z,8.9
2018-03-30T01:29:00.000Z,9.0
2018-03-30T01:34:00.000Z,9.0
2018-03-30T01:39:00.000Z,8.9
2018-03-30T01:44:00.000Z,8.9
2018-03-30T01:49:00.000Z,8.9
2018-03-30T01:54:00.000Z,8.9
2018-03-30T01:59:00.000Z,8.9
2018-03-30T02:04:00.000Z,8.9
2018-03-30T02:09:00.000Z,8.9
2018-03-30T02:14:00.000Z,8.9
2018-03-30T02:19:00.000Z,8.9
2018-03-30T02:24:00.000Z,8.8
2018-03-30T02:29:00.000Z,8.7
2018-03-30T02:34:00.000Z,8.8
2018-03-30T02:39:00.000Z,8.7
2018-03-30T02:44:00.000Z,8.5
2018-03-30T02:49:00.000Z,8.4
2018-03-30T02:54:00.000Z,8.4
2018-03-30T02:59:00.000Z,8.3
2018-03-30T03:04:00.000Z,8.3
2018-03-30T03:09:00.000Z,8.4
2018-03-30T03:14:00.000Z,8.4
2018-03-30T03:19:00.000Z,8.5
2018-03-30T03:24:00.000Z,8.5
2018-03-30T03:29:00.000Z,8.5
2018-03-30T03:34:00.000Z,8.5
2018-03-30T03:39:00.000Z,8.4
2018-03-30T03:44:00.000Z,8.5
2018-03-30T03:49:00.000Z,8.5
2018-03-30T03:54:00.000Z,8.5
2018-03-30T03:59:00.000Z,8.4
2018-03-30T04:04:00.000Z,8.4
2018-03-30T04:09:00.000Z,8.5
2018-03-30T04:14:00.000Z,8.3
2018-03-30T04:19:00.000Z,8.3
2018-03-30T04:24:00.000Z,8.3
2018-03-30T04:29:00.000Z,8.3
2018-03-30T04:34:00.000Z,8.1
2018-03-30T04:39:00.000Z,7.8
2018-03-30T04:44:00.000Z,7.8
2018-03-30T04:49:00.000Z,7.8
2018-03-30T04:54:00.000Z,7.7
2018-03-30T04:59:00.000Z,7.8
2018-03-30T05:04:00.000Z,7.9
2018-03-30T05:09:00.000Z,8.0
2018-03-30T05:14:00.000Z,7.9
2018-03-30T05:19:00.000Z,7.7
2018-03-30T05:24:00.000Z,7.7
2018-03-30T05:29:00.000Z,7.9
2018-03-30T05:34:00.000Z,7.9
2018-03-30T05:39:00.000Z,8.0
2018-03-30T05:44:00.000Z,8.1
2018-03-30T05:49:00.000Z,8.2
2018-03-30T05:54:00.000Z,8.3
2018-03-30T05:59:00.000Z,8.4
2018-03-30T06:04:00.000Z,8.5
2018-03-30T06:09:00.000Z,8.6
2018-03-30T06:14:00.000Z,8.9
2018-03-30T06:19:00.000Z,9.2
2018-03-30T06:25:00.000Z,9.4
2018-03-30T06:30:00.000Z,9.5
2018-03-30T06:35:00.000Z,9.6
2018-03-30T06:40:00.000Z,9.6
2018-03-30T06:45:00.000Z,9.5
2018-03-30T06:50:00.000Z,9.3
2018-03-30T06:55:00.000Z,9.3
2018-03-30T07:00:00.000Z,9.4
2018-03-30T07:05:00.000Z,9.6
2018-03-30T07:10:00.000Z,9.8
2018-03-30T07:15:00.000Z,10.0
2018-03-30T07:20:00.000Z,10.1
2018-03-30T07:25:00.000Z,10.1
2018-03-30T07:30:00.000Z,10.3
2018-03-30T07:35:00.000Z,10.5
2018-03-30T07:40:00.000Z,10.6
2018-03-30T07:45:00.000Z,10.7
2018-03-30T07:50:00.000Z,10.4
2018-03-30T07:55:00.000Z,10.5
2018-03-30T08:00:00.000Z,10.7
2018-03-30T08:05:00.000Z,10.8
2018-03-30T08:10:00.000Z,10.8
2018-03-30T08:15:00.000Z,10.6
2018-03-30T08:20:00.000Z,10.7
2018-03-30T08:25:00.000Z,10.8
2018-03-30T08:30:00.000Z,11.0
2018-03-30T08:35:00.000Z,11.3
2018-03-30T08:40:00.000Z,11.6
2018-03-30T08:45:00.000Z,11.6
2018-03-30T08:50:00.000Z,11.6
2018-03-30T08:55:00.000Z,11.5
2018-03-30T09:00:00.000Z,11.3
2018-03-30T09:05:00.000Z,11.1
2018-03-30T09:10:00.000Z,11.0
2018-03-30T09:15:00.000Z,11.2
2018-03-30T09:20:00.000Z,11.2
2018-03-30T09:25:00.000Z,11.2
2018-03-30T09:30:00.000Z,11.2
2018-03-30T09:35:00.000Z,11.3
2018-03-30T09:40:00.000Z,11.4
2018-03-30T09:45:00.000Z,11.6
2018-03-30T09:50:00.000Z,11.5
2018-03-30T09:55:00.000Z,11.8
2018-03-30T10:00:00.000Z,12.6
2018-03-30T10:05:00.000Z,13.3
2018-03-30T10:10:00.000Z,12.9
2018-03-30T10:15:00.000Z,12.4
2018-03-30T10:20:00.000Z,12.2
2018-03-30T10:25:00.000Z,12.0
2018-03-30T10:30:00.000Z,12.1
2018-03-30T10:35:00.000Z,12.5
2018-03-30T10:40:00.000Z,12.4
2018-03-30T10:45:00.000Z,11.9
2018-03-30T10:50:00.000Z,11.6
2018-03-30T10:55:00.000Z,11.6
2018-03-30T11:00:00.000Z,11.7
2018-03-30T11:05:00.000Z,11.8
2018-03-30T11:10:00.000Z,11.6
2018-03-30T11:15:00.000Z,11.6
2018-03-30T11:20:00.000Z,11.8
2018-03-30T11:25:00.000Z,11.9
2018-03-30T11:30:00.000Z,12.0
2018-03-30T11:35:00.000Z,12.2
2018-03-30T11:40:00.000Z,12.3
2018-03-30T11:45:00.000Z,12.1
2018-03-30T11:50:00.000Z,12.0
2018-03-30T11:55:00.000Z,12.0
2018-03-30T12:00:00.000Z,11.9
2018-03-30T12:05:00.000Z,11.9
2018-03-30T12:10:00.000Z,12.4
2018-03-30T12:15:00.000Z,12.6
2018-03-30T12:20:00.000Z,12.5
2018-03-30T12:25:00.000Z,12.7
2018-03-30T12:31:00.000Z,12.8
2018-03-30T12:36:00.000Z,12.7
2018-03-30T12:41:00.000Z,12.4
2018-03-30T12:46:00.000Z,12.3
2018-03-30T12:51:00.000Z,12.6
2018-03-30T12:56:00.000Z,13.2
2018-03-30T13:01:00.000Z,13.6
2018-03-30T13:06:00.000Z,13.9
2018-03-30T13:11:00.000Z,14.1
2018-03-30T13:16:00.000Z,14.3
2018-03-30T13:21:00.000Z,14.4
2018-03-30T13:26:00.000Z,14.5
2018-03-30T13:31:00.000Z,13.9
2018-03-30T13:36:00.000Z,13.9
2018-03-30T13:41:00.000Z,13.9
2018-03-30T13:46:00.000Z,14.6
2018-03-30T13:51:00.000Z,14.9
2018-03-30T13:56:00.000Z,15.0
2018-03-30T14:01:00.000Z,14.0
2018-03-30T14:06:00.000Z,13.1
2018-03-30T14:11:00.000Z,12.7
2018-03-30T14:16:00.000Z,12.4
2018-03-30T14:21:00.000Z,13.0
2018-03-30T14:26:00.000Z,13.1
2018-03-30T14:31:00.000Z,13.4
2018-03-30T14:36:00.000Z,13.7
2018-03-30T14:41:00.000Z,13.7
2018-03-30T14:46:00.000Z,13.9
2018-03-30T14:51:00.000Z,13.9
2018-03-30T14:56:00.000Z,14.0
2018-03-30T15:01:00.000Z,13.9
2018-03-30T15:06:00.000Z,13.8
2018-03-30T15:11:00.000Z,13.6
2018-03-30T15:16:00.000Z,13.4
2018-03-30T15:21:00.000Z,13.3
2018-03-30T15:26:00.000Z,13.2
2018-03-30T15:31:00.000Z,13.2
2018-03-30T15:36:00.000Z,13.0
2018-03-30T15:41:00.000Z,12.9
2018-03-30T15:46:00.000Z,12.9
2018-03-30T15:51:00.000Z,12.9
2018-03-30T15:56:00.000Z,12.7
2018-03-30T16:01:00.000Z,12.5
2018-03-30T16:06:00.000Z,12.4
2018-03-30T16:11:00.000Z,12.4
2018-03-30T16:16:00.000Z,12.1
2018-03-30T16:21:00.000Z,12.0
2018-03-30T16:26:00.000Z,11.9
2018-03-30T16:31:00.000Z,11.7
2018-03-30T16:36:00.000Z,11.6
2018-03-30T16:41:00.000Z,11.5
2018-03-30T16:46:00.000Z,11.3
2018-03-30T16:51:00.000Z,11.2
2018-03-30T16:56:00.000Z,11.1
2018-03-30T17:01:00.000Z,11.1
2018-03-30T17:06:00.000Z,11.0
2018-03-30T17:11:00.000Z,10.8
2018-03-30T17:16:00.000Z,10.8
2018-03-30T17:21:00.000Z,10.8
2018-03-30T17:26:00.000Z,10.7
2018-03-30T17:31:00.000Z,10.6
2018-03-30T17:36:00.000Z,10.6
2018-03-30T17:41:00.000Z,10.5
2018-03-30T17:46:00.000Z,10.5
2018-03-30T17:51:00.000Z,10.5
2018-03-30T17:56:00.000Z,10.5
2018-03-30T18:01:00.000Z,10.4
2018-03-30T18:06:00.000Z,10.4
2018-03-30T18:11:00.000Z,10.4
2018-03-30T18:16:00.000Z,10.5
2018-03-30T18:21:00.000Z,10.5
2018-03-30T18:26:00.000Z,10.5
2018-03-30T18:31:00.000Z,10.5
2018-03-30T18:36:00.000Z,10.6
2018-03-30T18:41:00.000Z,10.6
2018-03-30T18:47:00.000Z,10.6
2018-03-30T18:52:00.000Z,10.7
2018-03-30T18:57:00.000Z,10.7
2018-03-30T19:02:00.000Z,10.7
2018-03-30T19:07:00.000Z,10.7
2018-03-30T19:12:00.000Z,10.8
2018-03-30T19:17:00.000Z,10.8
2018-03-30T19:22:00.000Z,10.8
2018-03-30T19:27:00.000Z,10.7
2018-03-30T19:32:00.000Z,10.8
2018-03-30T19:37:00.000Z,10.8
2018-03-30T19:42:00.000Z,10.9
2018-03-30T19:47:00.000Z,10.9
2018-03-30T19:52:00.000Z,10.9
2018-03-30T19:57:00.000Z,10.9
2018-03-30T20:02:00.000Z,10.9
2018-03-30T20:07:00.000Z,10.9
2018-03-30T20:12:00.000Z,11.0
2018-03-30T20:17:00.000Z,11.0
2018-03-30T20:22:00.000Z,11.1
2018-03-30T20:27:00.000Z,11.1
2018-03-30T20:32:00.000Z,11.1
2018-03-30T20:37:00.000Z,11.1
2018-03-30T20:42:00.000Z,11.1
2018-03-30T20:47:00.000Z,11.1
2018-03-30T20:52:00.000Z,11.1
2018-03-30T20:57:00.000Z,11.1
2018-03-30T21:02:00.000Z,11.1
2018-03-30T21:07:00.000Z,11.1
2018-03-30T21:12:00.000Z,11.1
2018-03-30T21:17:00.000Z,11.1
2018-03-30T21:22:00.000Z,11.1
2018-03-30T21:27:00.000Z,11.1
2018-03-30T21:32:00.000Z,11.2
2018-03-30T21:37:00.000Z,11.1
2018-03-30T21:42:00.000Z,11.0
2018-03-30T21:47:00.000Z,11.0
2018-03-30T21:52:00.000Z,11.0
2018-03-30T21:57:00.000Z,11.0
2018-03-30T22:02:00.000Z,11.0
2018-03-30T22:07:00.000Z,11.0
2018-03-30T22:12:00.000Z,11.1
2018-03-30T22:17:00.000Z,11.1
2018-03-30T22:22:00.000Z,11.1
2018-03-30T22:27:00.000Z,11.1
2018-03-30T22:32:00.000Z,11.1
2018-03-30T22:37:00.000Z,11.0
2018-03-30T22:42:00.000Z,11.0
2018-03-30T22:47:00.000Z,11.0
2018-03-30T22:52:00.000Z,11.0
2018-03-30T22:57:00.000Z,11.0
2018-03-30T23:02:00.000Z,11.1
2018-03-30T23:07:00.000Z,11.2
2018-03-30T23:12:00.000Z,11.3
2018-03-30T23:17:00.000Z,11.4
2018-03-30T23:22:00.000Z,11.5
2018-03-30T23:27:00.000Z,11.6
2018-03-30T23:32:00.000Z,11.6
2018-03-30T23:37:00.000Z,11.7
2018-03-30T23:42:00.000Z,11.7
2018-03-30T23:47:00.000Z,11.8
2018-03-30T23:52:00.000Z,11.9
2018-03-30T23:57:00.000Z,11.9
